createdAt,value
2023-02-02T00:01:43.738Z,5.8
2023-02-02T00:03:49.983Z,6.3
2023-02-02T00:05:56.160Z,5.9
2023-02-02T00:08:05.182Z,5
2023-02-02T00:10:11.397Z,6
2023-02-02T00:16:30.100Z,6.1
2023-02-02T00:20:42.493Z,5.9
2023-02-02T00:22:51.505Z,5.9
2023-02-02T00:24:57.718Z,5.4
2023-02-02T00:27:03.990Z,6.5
2023-02-02T00:29:10.152Z,5.1
2023-02-02T00:31:16.488Z,5.1
2023-02-02T00:33:22.602Z,5
2023-02-02T00:35:28.838Z,7.1
2023-02-02T00:37:37.899Z,5.2
2023-02-02T00:39:44.118Z,6.1
2023-02-02T00:41:50.330Z,5.7
2023-02-02T00:43:56.576Z,6.5
2023-02-02T00:46:02.837Z,5.8
2023-02-02T00:48:09.020Z,5.5
2023-02-02T00:50:15.224Z,4
2023-02-02T00:52:24.256Z,4.5
2023-02-02T00:54:30.502Z,6.5
2023-02-02T00:56:36.760Z,4.3
2023-02-02T00:59:02.657Z,5.7
2023-02-02T01:01:08.984Z,5.6
2023-02-02T01:03:15.107Z,4.2
2023-02-02T01:05:24.540Z,3
2023-02-02T01:07:30.362Z,4.3
2023-02-02T01:09:36.621Z,3.6
2023-02-02T01:11:42.826Z,5.8
2023-02-02T01:13:49.059Z,4.6
2023-02-02T01:15:55.316Z,5
2023-02-02T01:18:01.567Z,4.6
2023-02-02T01:20:10.616Z,4.7
2023-02-02T01:30:41.839Z,6
2023-02-02T01:37:03.223Z,4.5
2023-02-02T01:39:09.496Z,5.1
2023-02-02T01:41:15.702Z,4.2
2023-02-02T01:43:21.932Z,3.7
2023-02-02T01:45:28.183Z,5.2
2023-02-02T01:49:43.440Z,4.3
2023-02-02T01:51:49.656Z,5.8
2023-02-02T01:53:55.904Z,5
2023-02-02T01:55:00.434Z,5.2
2023-02-02T01:57:06.675Z,4.9
2023-02-02T01:59:12.913Z,4.8
2023-02-02T02:01:19.176Z,3.9
2023-02-02T02:03:28.176Z,5.2
2023-02-02T02:05:34.412Z,4
2023-02-02T02:07:40.628Z,4.4
2023-02-02T02:11:53.129Z,4.4
2023-02-02T02:13:59.349Z,3.6
2023-02-02T02:16:05.599Z,4.1
2023-02-02T02:18:14.643Z,4.3
2023-02-02T02:20:20.903Z,3.7
2023-02-02T02:28:45.798Z,3.4
2023-02-02T02:33:01.099Z,3.1
2023-02-02T02:37:13.559Z,3.2
2023-02-02T02:39:19.776Z,4.5
2023-02-02T02:43:32.242Z,3.5
2023-02-02T02:45:38.462Z,3.5
2023-02-02T02:47:47.503Z,3.6
2023-02-02T02:49:53.744Z,6.7
2023-02-02T02:51:59.947Z,3.3
2023-02-02T02:53:04.489Z,3.1
2023-02-02T02:55:04.529Z,3.6
2023-02-02T02:57:10.759Z,3.6
2023-02-02T02:59:16.987Z,3.1
2023-02-02T03:01:26.057Z,3.6
2023-02-02T03:03:32.279Z,2.9
2023-02-02T03:09:50.949Z,4.3
2023-02-02T03:14:03.349Z,4.2
2023-02-02T03:16:12.456Z,4.7
2023-02-02T03:22:31.067Z,4.8
2023-02-02T03:28:49.756Z,5.9
2023-02-02T03:30:58.871Z,4.8
2023-02-02T03:33:04.983Z,4.6
2023-02-02T03:35:11.220Z,5.2
2023-02-02T03:37:17.435Z,5.5
2023-02-02T03:39:23.645Z,6.1
2023-02-02T03:41:29.867Z,6.5
2023-02-02T03:43:36.187Z,7.9
2023-02-02T03:45:45.128Z,9.1
2023-02-02T03:47:51.317Z,10.3
2023-02-02T03:49:57.578Z,9
2023-02-02T03:51:02.079Z,10.6
2023-02-02T03:53:08.286Z,10.1
2023-02-02T03:55:14.525Z,11.9
2023-02-02T03:57:20.767Z,14.4
2023-02-02T03:59:29.826Z,11.9
2023-02-02T04:01:36.075Z,11.3
2023-02-02T04:07:54.696Z,11.8
2023-02-02T04:14:16.165Z,13
2023-02-02T04:20:34.852Z,10
2023-02-02T04:22:41.094Z,12.4
2023-02-02T04:24:47.301Z,10.6
2023-02-02T04:26:53.620Z,10.4
2023-02-02T04:29:02.568Z,10.9
2023-02-02T04:31:08.979Z,12.8
2023-02-02T04:33:15.034Z,12
2023-02-02T04:35:21.236Z,9.7
2023-02-02T04:37:27.485Z,9.2
2023-02-02T04:39:33.710Z,10.1
2023-02-02T04:41:39.928Z,10.2
2023-02-02T04:45:55.253Z,10.7
2023-02-02T04:48:01.463Z,8.1
2023-02-02T04:52:33.395Z,10.2
2023-02-02T05:01:01.244Z,10.8
2023-02-02T05:03:07.392Z,7.2
2023-02-02T05:05:13.662Z,7.7
2023-02-02T05:07:19.881Z,9.5
2023-02-02T05:09:26.130Z,7.8
2023-02-02T05:11:35.159Z,8
2023-02-02T05:13:41.393Z,8.7
2023-02-02T05:15:47.615Z,9.3
2023-02-02T05:20:00.227Z,9
2023-02-02T05:22:06.359Z,4.9
2023-02-02T05:24:12.606Z,8.5
2023-02-02T05:28:29.458Z,11.4
2023-02-02T05:30:35.845Z,7.1
2023-02-02T05:32:41.889Z,9.3
2023-02-02T05:34:48.147Z,7.7
2023-02-02T05:36:54.369Z,7.8
2023-02-02T05:39:00.636Z,8.2
2023-02-02T05:41:09.670Z,7.9
2023-02-02T05:43:15.889Z,7.7
2023-02-02T05:46:26.666Z,9.5
2023-02-02T05:48:32.893Z,9.3
2023-02-02T05:50:39.126Z,9.2
2023-02-02T05:52:45.361Z,9.3
2023-02-02T05:54:54.450Z,8.4
2023-02-02T05:57:00.648Z,8.6
2023-02-02T05:59:06.890Z,9.2
2023-02-02T06:01:13.130Z,9.8
2023-02-02T06:03:19.450Z,9.7
2023-02-02T06:05:25.806Z,9
2023-02-02T06:07:31.840Z,9
2023-02-02T06:09:40.891Z,10.5
2023-02-02T06:11:47.156Z,10.6
2023-02-02T06:13:53.368Z,9.9
2023-02-02T06:15:59.749Z,10.2
2023-02-02T06:18:05.854Z,10.8
2023-02-02T06:20:12.072Z,9.9
2023-02-02T06:22:18.349Z,8.8
2023-02-02T06:24:27.376Z,8
2023-02-02T06:26:33.612Z,9.8
2023-02-02T06:28:39.881Z,10.3
2023-02-02T06:32:52.296Z,7.6
2023-02-02T06:34:58.563Z,7.4
2023-02-02T06:37:04.807Z,8.5
2023-02-02T06:39:13.846Z,9.2
2023-02-02T06:41:20.118Z,8.1
2023-02-02T06:43:26.314Z,8.2
2023-02-02T06:44:30.819Z,7.5
2023-02-02T06:46:37.131Z,9.2
2023-02-02T06:48:43.310Z,8.6
2023-02-02T06:50:49.551Z,8.4
2023-02-02T06:52:58.573Z,9.3
2023-02-02T06:55:04.845Z,10.1
2023-02-02T07:03:29.822Z,9.6
2023-02-02T07:05:36.062Z,8.7
2023-02-02T07:09:58.394Z,10.7
2023-02-02T07:14:03.815Z,8.8
2023-02-02T07:16:10.318Z,8.3
2023-02-02T07:18:16.424Z,8.6
2023-02-02T07:20:22.594Z,10
2023-02-02T07:22:31.577Z,9.6
2023-02-02T07:26:44.083Z,8.4
2023-02-02T07:28:50.335Z,10.5
2023-02-02T07:30:56.706Z,9.2
2023-02-02T07:33:02.817Z,11.1
2023-02-02T07:35:09.014Z,10.7
2023-02-02T07:41:30.551Z,10.4
2023-02-02T07:42:35.057Z,10.2
2023-02-02T07:44:41.301Z,9.6
2023-02-02T07:46:47.587Z,9.6
2023-02-02T07:48:53.791Z,9.6
2023-02-02T07:51:02.813Z,9.1
2023-02-02T07:53:09.083Z,8.7
2023-02-02T07:55:15.293Z,8.9
2023-02-02T07:57:21.549Z,10.8
2023-02-02T07:59:27.786Z,10.4
2023-02-02T08:01:34.082Z,11.2
2023-02-02T08:03:40.274Z,9.9
2023-02-02T08:05:49.314Z,9
2023-02-02T08:07:55.548Z,8.9
2023-02-02T08:10:01.823Z,8.9
2023-02-02T08:12:08.025Z,10.3
2023-02-02T08:14:14.318Z,7.8
2023-02-02T08:16:20.576Z,8.1
2023-02-02T08:20:35.779Z,8.2
2023-02-02T08:22:42.025Z,10.5
2023-02-02T08:24:48.245Z,8.5
2023-02-02T08:26:54.595Z,8.4
2023-02-02T08:29:00.703Z,10.1
2023-02-02T08:31:07.028Z,8.4
2023-02-02T08:33:13.186Z,12
2023-02-02T08:35:22.522Z,12.6
2023-02-02T08:39:34.888Z,9.2
2023-02-02T08:46:14.325Z,10.1
2023-02-02T08:48:21.994Z,9.9
2023-02-02T08:52:34.607Z,8.5
2023-02-02T08:54:40.862Z,8.8
2023-02-02T09:05:14.858Z,10.4
2023-02-02T09:09:27.322Z,9.3
2023-02-02T09:13:39.797Z,8
2023-02-02T09:15:46.036Z,8.6
2023-02-02T09:22:07.546Z,11.3
2023-02-02T09:24:13.872Z,7.9
2023-02-02T09:26:20.089Z,7.7
2023-02-02T09:28:26.308Z,9
2023-02-02T09:30:32.584Z,6.6
2023-02-02T09:32:41.602Z,8.5
2023-02-02T09:34:47.817Z,7.6
2023-02-02T09:36:54.043Z,8.2
2023-02-02T09:40:04.812Z,8.1
2023-02-02T09:42:11.083Z,8.3
2023-02-02T09:44:17.297Z,8.9
2023-02-02T09:48:33.265Z,9
2023-02-02T10:01:13.544Z,8.8
2023-02-02T10:03:19.749Z,8.4
2023-02-02T10:05:26.251Z,6.9
2023-02-02T10:07:32.205Z,6.3
2023-02-02T10:09:38.456Z,7.2
2023-02-02T10:11:44.690Z,6.4
2023-02-02T10:13:50.931Z,7.3
2023-02-02T10:16:01.719Z,9
2023-02-02T10:18:06.365Z,8.1
2023-02-02T10:26:31.232Z,7.9
2023-02-02T10:28:37.417Z,8.7
2023-02-02T10:30:46.564Z,7.1
2023-02-02T10:32:52.700Z,7.9
2023-02-02T10:36:03.463Z,7.2
2023-02-02T10:38:09.716Z,8.1
2023-02-02T10:40:15.984Z,8.6
2023-02-02T10:42:22.214Z,8
2023-02-02T10:44:31.242Z,7.7
2023-02-02T10:46:37.670Z,7.2
2023-02-02T10:48:43.734Z,6.8
2023-02-02T10:55:04.343Z,8.8
2023-02-02T11:01:24.116Z,8.4
2023-02-02T11:03:30.417Z,8.6
2023-02-02T11:05:36.528Z,9.1
2023-02-02T11:07:42.760Z,8.6
2023-02-02T11:09:48.998Z,8.7
2023-02-02T11:11:55.246Z,8.7
2023-02-02T11:14:04.304Z,8.8
2023-02-02T11:16:10.701Z,10.4
2023-02-02T11:18:16.852Z,8.9
2023-02-02T11:20:23.382Z,9.8
2023-02-02T11:26:41.794Z,7.9
2023-02-02T11:28:50.881Z,9.6
2023-02-02T11:30:58.745Z,11.3
2023-02-02T11:33:04.848Z,11.9
2023-02-02T11:44:43.430Z,9
2023-02-02T11:48:55.936Z,10.7
2023-02-02T11:55:14.679Z,11.3
2023-02-02T11:57:23.716Z,10.2
2023-02-02T11:59:29.968Z,10.9
2023-02-02T12:05:48.749Z,9.8
2023-02-02T12:07:54.955Z,10.4
2023-02-02T12:10:01.204Z,10
2023-02-02T12:12:10.278Z,10.2
2023-02-02T12:14:16.531Z,8.2
2023-02-02T12:16:22.807Z,10.2
2023-02-02T12:18:28.983Z,7.9
2023-02-02T12:20:35.267Z,12.2
2023-02-02T12:22:41.485Z,9.8
2023-02-02T12:24:47.718Z,9.3
2023-02-02T12:26:56.830Z,12.2
2023-02-02T12:29:03.013Z,8.7
2023-02-02T12:31:09.339Z,9.6
2023-02-02T12:33:33.170Z,9.6
2023-02-02T12:35:39.408Z,10.1
2023-02-02T12:39:54.723Z,9.8
2023-02-02T12:44:07.201Z,10.4
2023-02-02T12:46:13.496Z,9
2023-02-02T12:48:19.705Z,9.6
2023-02-02T12:50:26.235Z,7.6
2023-02-02T12:52:32.190Z,10
2023-02-02T12:54:47.814Z,8.7
2023-02-02T12:58:53.770Z,7.3
2023-02-02T13:01:00.022Z,7.3
2023-02-02T13:03:06.275Z,7.2
2023-02-02T13:05:12.487Z,7.2
2023-02-02T13:07:18.818Z,7.5
2023-02-02T13:11:34.053Z,8.6
2023-02-02T13:13:40.300Z,9.5
2023-02-02T13:15:46.549Z,5.8
2023-02-02T13:17:52.794Z,6.2
2023-02-02T13:22:05.269Z,7.7
2023-02-02T13:24:14.361Z,7.7
2023-02-02T13:26:20.787Z,6.1
2023-02-02T13:28:26.839Z,9.1
2023-02-02T13:29:31.391Z,8.4
2023-02-02T13:31:37.802Z,9
2023-02-02T13:33:43.915Z,6.8
2023-02-02T13:35:50.160Z,7.5
2023-02-02T13:40:05.437Z,7
2023-02-02T13:42:11.694Z,6.6
2023-02-02T13:44:17.991Z,7.2
2023-02-02T13:46:24.259Z,7.2
2023-02-02T13:48:30.474Z,7.1
2023-02-02T13:50:36.679Z,8.1
2023-02-02T13:52:45.719Z,7.3
2023-02-02T13:54:51.975Z,7.4
2023-02-02T13:56:58.267Z,8.7
2023-02-02T13:59:04.477Z,7.2
2023-02-02T14:01:10.766Z,7.5
2023-02-02T14:03:16.965Z,7.2
2023-02-02T14:05:23.597Z,6.9
2023-02-02T14:07:32.297Z,7.5
2023-02-02T14:13:51.074Z,10.7
2023-02-02T14:20:09.758Z,6.4
2023-02-02T14:22:18.808Z,9.5
2023-02-02T14:26:31.418Z,7.8
2023-02-02T14:27:35.937Z,8.5
2023-02-02T14:29:42.096Z,9
2023-02-02T14:31:48.335Z,8.7
2023-02-02T14:33:54.570Z,6.7
2023-02-02T14:36:03.724Z,8.2
2023-02-02T14:48:41.081Z,7.7
2023-02-02T14:50:50.134Z,5.5
2023-02-02T14:55:02.642Z,5.9
2023-02-02T14:59:15.101Z,3.8
2023-02-02T15:01:21.382Z,5.5
2023-02-02T15:03:27.602Z,6.6
2023-02-02T15:05:36.628Z,6.2
2023-02-02T15:07:42.870Z,3.9
2023-02-02T15:09:49.135Z,4.7
2023-02-02T15:14:01.609Z,6.4
2023-02-02T15:16:07.982Z,5.2
2023-02-02T15:20:23.167Z,5.7
2023-02-02T15:22:29.406Z,4.8
2023-02-02T15:24:35.679Z,4.3
2023-02-02T15:25:40.190Z,4.3
2023-02-02T15:27:56.342Z,4.3
2023-02-02T15:29:52.673Z,4.8
2023-02-02T15:31:58.953Z,4
2023-02-02T15:34:07.988Z,4
2023-02-02T15:36:14.239Z,5.4
2023-02-02T15:38:20.465Z,5.2
2023-02-02T15:42:32.954Z,14.3
2023-02-02T15:46:45.486Z,8.7
2023-02-02T15:48:54.502Z,5.1
2023-02-02T15:51:00.747Z,4.9
2023-02-02T15:55:13.237Z,4.1
2023-02-02T16:01:31.983Z,6
2023-02-02T16:03:41.019Z,6.3
2023-02-02T16:08:04.918Z,4.9
2023-02-02T16:14:12.218Z,5.3
2023-02-02T16:16:18.542Z,5.6
2023-02-02T16:18:27.537Z,5.7
2023-02-02T16:20:33.743Z,7.1
2023-02-02T16:22:39.980Z,8.4
2023-02-02T16:25:03.947Z,8.8
2023-02-02T16:31:25.499Z,7.7
2023-02-02T16:33:31.701Z,11.1
2023-02-02T16:35:37.959Z,9.9
2023-02-02T16:37:44.213Z,12.9
2023-02-02T16:44:02.920Z,11.5
2023-02-02T16:46:12.010Z,13.6
2023-02-02T16:48:18.255Z,11.5
2023-02-02T16:50:24.465Z,11.7
2023-02-02T16:52:30.701Z,11.8
2023-02-02T16:54:36.962Z,13.5
2023-02-02T16:56:43.191Z,10.1
2023-02-02T16:58:49.457Z,11.9
2023-02-02T17:01:12.374Z,12.8
2023-02-02T17:03:04.759Z,12.7
2023-02-02T17:05:11.009Z,12.2
2023-02-02T17:07:17.248Z,14.7
2023-02-02T17:09:23.520Z,14.8
2023-02-02T17:11:29.766Z,13.9
2023-02-02T17:13:36.063Z,13
2023-02-02T17:17:51.375Z,15.7
2023-02-02T17:19:57.612Z,12.5
2023-02-02T17:21:02.113Z,14
2023-02-02T17:27:20.902Z,13.3
2023-02-02T17:31:36.260Z,13.6
2023-02-02T17:33:44.049Z,16.6
2023-02-02T17:35:55.410Z,14.6
2023-02-02T17:40:02.747Z,17
2023-02-02T17:48:30.578Z,14.6
2023-02-02T17:59:04.659Z,16.3
2023-02-02T18:01:10.959Z,16.6
2023-02-02T18:03:17.223Z,15.9
2023-02-02T18:05:23.868Z,16.6
2023-02-02T18:07:29.660Z,16.5
2023-02-02T18:09:35.923Z,17.8
2023-02-02T18:11:42.632Z,17.1
2023-02-02T18:13:51.235Z,20.4
2023-02-02T18:18:03.733Z,21.5
2023-02-02T18:19:08.263Z,20.2
2023-02-02T18:21:14.511Z,23.8
2023-02-02T18:29:42.350Z,26.4
2023-02-02T18:33:54.836Z,22.8
2023-02-02T18:36:01.088Z,21.9
2023-02-02T18:38:07.336Z,24
2023-02-02T18:40:13.581Z,18.7
2023-02-02T18:42:22.640Z,20.8
2023-02-02T18:46:35.157Z,22.7
2023-02-02T18:48:41.386Z,22
2023-02-02T18:50:47.639Z,22.9
2023-02-02T18:52:53.879Z,20.6
2023-02-02T18:55:00.148Z,20.7
2023-02-02T18:57:09.195Z,20.2
2023-02-02T18:59:15.434Z,20.5
2023-02-02T19:01:21.799Z,22.6
2023-02-02T19:03:27.958Z,19.4
2023-02-02T19:05:34.191Z,22.8
2023-02-02T19:07:40.437Z,19.1
2023-02-02T19:09:46.670Z,20.5
2023-02-02T19:14:01.981Z,19.3
2023-02-02T19:17:12.756Z,19.9
2023-02-02T19:21:25.252Z,18.6
2023-02-02T19:23:31.518Z,19.4
2023-02-02T19:25:40.571Z,20.9
2023-02-02T19:27:46.826Z,21.2
2023-02-02T19:29:53.081Z,21.4
2023-02-02T19:31:59.410Z,17.4
2023-02-02T19:34:05.582Z,21.4
2023-02-02T19:36:11.827Z,19.9
2023-02-02T19:38:18.084Z,19.3
2023-02-02T19:40:27.418Z,19.4
2023-02-02T19:42:33.380Z,24
2023-02-02T19:44:39.639Z,21.8
2023-02-02T19:46:46.001Z,23.2
2023-02-02T19:48:52.129Z,17.1
2023-02-02T19:50:58.544Z,19.9
2023-02-02T19:53:04.625Z,19.9
2023-02-02T19:55:13.665Z,20
2023-02-02T19:57:19.932Z,23.1
2023-02-02T19:59:26.182Z,18.5
2023-02-02T20:01:32.415Z,22
2023-02-02T20:03:38.673Z,22.6
2023-02-02T20:05:44.944Z,22.8
2023-02-02T20:07:51.164Z,19
2023-02-02T20:10:00.228Z,19.9
2023-02-02T20:16:32.717Z,19.8
2023-02-02T20:20:45.083Z,16.5
2023-02-02T20:22:54.120Z,18.7
2023-02-02T20:27:06.641Z,19.1
2023-02-02T20:29:12.889Z,19
2023-02-02T20:31:19.378Z,15.8
2023-02-02T20:33:25.383Z,16.9
2023-02-02T20:35:31.628Z,15.7
2023-02-02T20:37:40.830Z,18.1
2023-02-02T20:39:46.939Z,18
2023-02-02T20:41:53.179Z,15.7
2023-02-02T20:43:59.423Z,14
2023-02-02T20:46:05.697Z,16.3
2023-02-02T20:48:11.917Z,18
2023-02-02T20:50:18.168Z,17.5
2023-02-02T20:54:33.464Z,17.4
2023-02-02T20:56:39.712Z,16.2
2023-02-02T20:58:45.975Z,17.7
2023-02-02T21:00:52.258Z,19.9
2023-02-02T21:02:58.513Z,13.7
2023-02-02T21:05:04.839Z,16.1
2023-02-02T21:07:13.801Z,15.4
2023-02-02T21:12:30.834Z,13.9
2023-02-02T21:14:37.113Z,17.3
2023-02-02T21:16:43.481Z,13.3
2023-02-02T21:20:58.823Z,16.6
2023-02-02T21:23:04.885Z,14.9
2023-02-02T21:25:11.126Z,14.2
2023-02-02T21:27:17.445Z,11.5
2023-02-02T21:33:36.157Z,16.4
2023-02-02T21:35:45.184Z,14.3
2023-02-02T21:37:51.410Z,13.5
2023-02-02T21:39:57.648Z,13.4
2023-02-02T21:42:03.901Z,12.4
2023-02-02T21:44:10.135Z,12.2
2023-02-02T21:46:16.406Z,13.4
2023-02-02T21:48:22.650Z,13.6
2023-02-02T21:50:31.676Z,14.1
2023-02-02T21:52:37.934Z,11.9
2023-02-02T21:54:44.164Z,12.6
2023-02-02T21:56:50.423Z,11.7
2023-02-02T21:58:56.672Z,12.6
2023-02-02T22:01:02.965Z,12.7
2023-02-02T22:03:09.151Z,13.2
2023-02-02T22:05:18.202Z,11.8
2023-02-02T22:07:24.454Z,12.4
2023-02-02T22:09:30.703Z,11.3
2023-02-02T22:10:35.231Z,10.4
2023-02-02T22:12:41.494Z,11.1
2023-02-02T22:14:47.728Z,12.9
2023-02-02T22:16:54.001Z,10.8
2023-02-02T22:19:03.068Z,11.6
2023-02-02T22:21:09.302Z,9.8
2023-02-02T22:23:15.566Z,11.3
2023-02-02T22:25:21.812Z,10.8
2023-02-02T22:29:34.327Z,9.9
2023-02-02T22:35:55.913Z,9.9
2023-02-02T22:38:02.233Z,9
2023-02-02T22:40:08.428Z,9.1
2023-02-02T22:42:14.703Z,9.9
2023-02-02T22:44:20.960Z,8.6
2023-02-02T22:46:27.279Z,7.7
2023-02-02T22:48:36.296Z,8.1
2023-02-02T22:50:42.575Z,8.2
2023-02-02T22:52:48.819Z,7.7
2023-02-02T22:54:55.079Z,7.5
2023-02-02T22:57:01.347Z,7.7
2023-02-02T22:59:07.643Z,7.2
2023-02-02T23:01:13.927Z,7
2023-02-02T23:03:22.981Z,7.4
2023-02-02T23:07:35.500Z,8.5
2023-02-02T23:08:40.015Z,8.2
2023-02-02T23:10:46.286Z,8.3
2023-02-02T23:12:52.544Z,7.4
2023-02-02T23:19:14.136Z,8.4
2023-02-02T23:23:26.625Z,7.2
2023-02-02T23:25:32.893Z,7.9
2023-02-02T23:27:39.234Z,7.5
2023-02-02T23:29:45.414Z,8.3
2023-02-02T23:31:54.501Z,8.2
2023-02-02T23:34:00.730Z,7.9
2023-02-02T23:36:06.982Z,7.5
2023-02-02T23:38:14.795Z,8.8
2023-02-02T23:40:21.028Z,6.5
2023-02-02T23:42:27.303Z,8.3
2023-02-02T23:44:33.518Z,7.9
2023-02-02T23:46:42.639Z,8.2
2023-02-02T23:48:48.852Z,8.9
2023-02-02T23:50:55.106Z,8.1
2023-02-02T23:53:01.354Z,9.9
2023-02-02T23:55:07.609Z,9.1
2023-02-02T23:57:13.873Z,8
2023-02-02T23:59:20.129Z,10.3
